Airfield :
LOGIN :

Register | Disclaimer

   EN    FR    IT 

 










Legend :    VFR   Marginal VFR   IFR   Intensive IFR   Very Intensive IFR
Visi :
Ceiling :
>= 8 km
>= 3000ft
5 to 8 km
1000 to 3000 ft
1500m to 5 km
500 to 1000 ft
800 to 1500m
200 to 500 ft
< 800m
< 200 ft
Symbols :   Thunderstorms  Fog  Heavy snow  Heavy precipitations  Wind > 20 kt
SIGMETs :     Misc.  Thunderstorms  Icing  Turbulence  Mountain Waves  Volcanic Ashes







- Airport Elevation : 49 ft
- IATA code : GLZ


EHGR - Gilze-Rijen Airbase

CURRENT METAR :
  • 190425Z AUTO 04009KT 340V100 9999 BKN024 OVC027 04/03 Q1023 WHT

EXPIRED METARs :
  • 190409Z AUTO 03008KT 350V070 9000 BR SCT027 OVC031 03/02 Q1023 BLU
  • 190355Z AUTO 03008KT 360V070 8000 BR BKN027 OVC031 03/02 Q1023 BLU
  • 190346Z AUTO 03008KT 350V070 8000 BR SCT027 OVC031 03/02 Q1023 BLU
  • 190325Z AUTO 02008KT 330V050 5000 BR BKN030 02/01 Q1024 WHT
  • 190314Z AUTO 02008KT 350V060 5000 BR FEW011 BKN029 02/01 Q1024 WHT
  • 190255Z AUTO 02006KT 340V060 6000 BR BKN012 OVC014 02/02 Q1024 GRN
  • 190229Z AUTO 04007KT 350V090 7000 BR FEW010 BKN013 03/02 Q1024 GRN
  • 190225Z AUTO 04007KT 360V090 8000 BR FEW010 BKN013 03/02 Q1024 GRN
  • 190155Z AUTO 05009KT 020V100 9000 BR BKN015 03/02 Q1024 WHT

Expired Forecast.
No reported NOTAMs for that airfield.



MET'MAP, your aeronautical weather chart ! - Copyright ORBIFLY December 2007 - Disclaimer

ORBIFLY MET'MAP TEAM :

Programming & Development : Alexandra Zaïnal
Concept & Development : Baudouin d'Aumeries
Co-Development & Prog : Marc-Olivier Méhu
Technical & hardware support : Manuel Goepfert

Contact : metmap@orbifly.com




SOURCES & CREDITS :

   NOAA